GMME/RBA METAR and TAF weather

Enter ICAO airport designator
Station Type Date Time Source
GMME METAR 2019/10/18 06:00 UTC NOAA

GMME 180600Z 13004KT 8000 SCT016 SCT200 11/11 Q1019 NOSIG


Station Type Date Time Source
GMME Decoded METAR 2019/10/18 06:00 UTC NOAA

Rabat-Sale, Morocco (GMME) 34-03N 006-46W 75M
Oct 18, 2019 - 02:00 AM EDT / 2019.10.18 0600 UTC
Wind: from the SE (130 degrees) at 5 MPH (4 KT):0
Visibility: 4 mile(s):0
Sky conditions: partly cloudy
Temperature: 51 F (11 C)
Dew Point: 51 F (11 C)
Relative Humidity: 100%
Pressure (altimeter): 30.09 in. Hg (1019 hPa)
ob: GMME 180600Z 13004KT 8000 SCT016 SCT200 11/11 Q1019 NOSIG
cycle: 6

Station Type Date Time Source
GMME TAF 2019/10/18 06:18 UTC NOAA

TAF GMME 180500Z 1806/1912 12008KT 8000 SCT016
BECMG 1812/1814 36012KT PROB30
TEMPO 1820/1907 3000 BR BKN010

Example: see airport list